sensor_id;sensor_type;location;lat;lon;timestamp;pressure;altitude;pressure_sealevel;temperature;humidity
62436;BME280;48480;50.252;18.848;2023-03-16T00:01:37;98917.99;;;1.15;63.62
62436;BME280;48480;50.252;18.848;2023-03-16T00:04:02;98913.43;;;1.14;63.49
62436;BME280;48480;50.252;18.848;2023-03-16T00:06:28;98910.21;;;1.11;63.46
62436;BME280;48480;50.252;18.848;2023-03-16T00:08:53;98913.44;;;1.12;63.61
62436;BME280;48480;50.252;18.848;2023-03-16T00:11:26;98916.05;;;1.13;63.67
62436;BME280;48480;50.252;18.848;2023-03-16T00:13:52;98917.73;;;1.12;63.79
62436;BME280;48480;50.252;18.848;2023-03-16T00:16:17;98915.83;;;1.12;63.75
62436;BME280;48480;50.252;18.848;2023-03-16T00:18:43;98915.91;;;1.11;64.01
62436;BME280;48480;50.252;18.848;2023-03-16T00:21:08;98915.73;;;1.09;64.06
62436;BME280;48480;50.252;18.848;2023-03-16T00:23:35;98925.77;;;1.09;64.11
62436;BME280;48480;50.252;18.848;2023-03-16T00:26:03;98925.10;;;1.06;64.10
62436;BME280;48480;50.252;18.848;2023-03-16T00:28:31;98926.92;;;1.05;64.14
62436;BME280;48480;50.252;18.848;2023-03-16T00:31:08;98930.78;;;1.02;64.14
62436;BME280;48480;50.252;18.848;2023-03-16T00:33:36;98930.15;;;0.95;63.96
62436;BME280;48480;50.252;18.848;2023-03-16T00:36:03;98927.67;;;0.92;64.32
62436;BME280;48480;50.252;18.848;2023-03-16T00:38:35;98923.65;;;0.88;64.35
62436;BME280;48480;50.252;18.848;2023-03-16T00:41:01;98928.31;;;0.89;64.48
62436;BME280;48480;50.252;18.848;2023-03-16T00:43:29;98924.95;;;0.87;64.60
62436;BME280;48480;50.252;18.848;2023-03-16T00:45:59;98928.27;;;0.84;64.38
62436;BME280;48480;50.252;18.848;2023-03-16T00:48:31;98931.17;;;0.80;64.70
62436;BME280;48480;50.252;18.848;2023-03-16T00:51:00;98934.01;;;0.75;64.68
62436;BME280;48480;50.252;18.848;2023-03-16T00:53:25;98931.09;;;0.71;64.66
62436;BME280;48480;50.252;18.848;2023-03-16T00:55:51;98932.47;;;0.68;64.57
62436;BME280;48480;50.252;18.848;2023-03-16T00:58:18;98931.18;;;0.64;64.56
62436;BME280;48480;50.252;18.848;2023-03-16T01:00:44;98932.23;;;0.61;64.94
62436;BME280;48480;50.252;18.848;2023-03-16T01:03:10;98929.89;;;0.60;64.97
62436;BME280;48480;50.252;18.848;2023-03-16T01:05:39;98933.52;;;0.59;64.87
62436;BME280;48480;50.252;18.848;2023-03-16T01:08:07;98932.72;;;0.58;65.00
62436;BME280;48480;50.252;18.848;2023-03-16T01:10:34;98931.71;;;0.58;65.03
62436;BME280;48480;50.252;18.848;2023-03-16T01:13:00;98933.63;;;0.56;65.14
62436;BME280;48480;50.252;18.848;2023-03-16T01:15:29;98931.72;;;0.52;65.02
62436;BME280;48480;50.252;18.848;2023-03-16T01:17:54;98929.71;;;0.49;65.28
62436;BME280;48480;50.252;18.848;2023-03-16T01:20:20;98935.95;;;0.47;65.44
62436;BME280;48480;50.252;18.848;2023-03-16T01:22:46;98937.84;;;0.46;65.58
62436;BME280;48480;50.252;18.848;2023-03-16T01:25:12;98938.11;;;0.47;65.55
62436;BME280;48480;50.252;18.848;2023-03-16T01:27:38;98941.42;;;0.45;65.63
62436;BME280;48480;50.252;18.848;2023-03-16T01:30:04;98943.29;;;0.44;65.71
62436;BME280;48480;50.252;18.848;2023-03-16T01:32:30;98940.52;;;0.42;65.78
62436;BME280;48480;50.252;18.848;2023-03-16T01:34:55;98945.96;;;0.42;65.76
62436;BME280;48480;50.252;18.848;2023-03-16T01:37:21;98948.34;;;0.39;65.70
62436;BME280;48480;50.252;18.848;2023-03-16T01:39:48;98952.17;;;0.36;65.68
62436;BME280;48480;50.252;18.848;2023-03-16T01:42:13;98953.55;;;0.33;65.82
62436;BME280;48480;50.252;18.848;2023-03-16T01:45:52;98952.78;;;0.31;66.05
62436;BME280;48480;50.252;18.848;2023-03-16T01:47:54;98952.35;;;0.28;66.18
62436;BME280;48480;50.252;18.848;2023-03-16T01:50:22;98954.02;;;0.27;66.41
62436;BME280;48480;50.252;18.848;2023-03-16T01:52:48;98953.86;;;0.27;66.53
62436;BME280;48480;50.252;18.848;2023-03-16T01:55:14;98947.30;;;0.27;66.65
62436;BME280;48480;50.252;18.848;2023-03-16T01:57:42;98946.14;;;0.26;66.82
62436;BME280;48480;50.252;18.848;2023-03-16T02:00:15;98949.48;;;0.25;66.62
62436;BME280;48480;50.252;18.848;2023-03-16T02:02:50;98948.38;;;0.22;66.61
62436;BME280;48480;50.252;18.848;2023-03-16T02:05:24;98948.59;;;0.19;66.62
62436;BME280;48480;50.252;18.848;2023-03-16T02:07:53;98949.16;;;0.18;66.88
62436;BME280;48480;50.252;18.848;2023-03-16T02:10:23;98953.09;;;0.16;66.94
62436;BME280;48480;50.252;18.848;2023-03-16T02:12:51;98957.20;;;0.11;66.94
62436;BME280;48480;50.252;18.848;2023-03-16T02:15:17;98961.05;;;0.08;67.02
62436;BME280;48480;50.252;18.848;2023-03-16T02:17:45;98964.02;;;0.06;67.09
62436;BME280;48480;50.252;18.848;2023-03-16T02:20:38;98966.86;;;0.03;66.90
62436;BME280;48480;50.252;18.848;2023-03-16T02:23:09;98974.99;;;0.01;66.98
62436;BME280;48480;50.252;18.848;2023-03-16T02:25:49;98981.61;;;0.02;67.11
62436;BME280;48480;50.252;18.848;2023-03-16T02:28:48;98983.48;;;0.03;67.06
62436;BME280;48480;50.252;18.848;2023-03-16T02:31:18;98986.66;;;-0.04;66.79
62436;BME280;48480;50.252;18.848;2023-03-16T02:33:44;98987.51;;;-0.09;66.82
62436;BME280;48480;50.252;18.848;2023-03-16T02:36:13;98992.77;;;-0.15;66.83
62436;BME280;48480;50.252;18.848;2023-03-16T02:38:39;98997.59;;;-0.16;66.92
62436;BME280;48480;50.252;18.848;2023-03-16T02:41:11;99000.20;;;-0.20;66.92
62436;BME280;48480;50.252;18.848;2023-03-16T02:43:41;99001.86;;;-0.24;66.86
62436;BME280;48480;50.252;18.848;2023-03-16T02:46:07;99004.76;;;-0.24;67.27
62436;BME280;48480;50.252;18.848;2023-03-16T02:48:39;99009.25;;;-0.24;67.49
62436;BME280;48480;50.252;18.848;2023-03-16T02:51:07;99012.81;;;-0.24;67.68
62436;BME280;48480;50.252;18.848;2023-03-16T02:53:33;99015.63;;;-0.24;67.76
62436;BME280;48480;50.252;18.848;2023-03-16T02:55:59;99019.66;;;-0.23;67.76
62436;BME280;48480;50.252;18.848;2023-03-16T02:58:27;99024.02;;;-0.22;67.60
62436;BME280;48480;50.252;18.848;2023-03-16T03:00:52;99022.66;;;-0.23;67.53
62436;BME280;48480;50.252;18.848;2023-03-16T03:03:18;99027.75;;;-0.24;67.49
62436;BME280;48480;50.252;18.848;2023-03-16T03:05:43;99031.02;;;-0.26;67.42
62436;BME280;48480;50.252;18.848;2023-03-16T03:08:08;99035.23;;;-0.32;67.30
62436;BME280;48480;50.252;18.848;2023-03-16T03:10:34;99039.70;;;-0.34;67.69
62436;BME280;48480;50.252;18.848;2023-03-16T03:12:59;99033.91;;;-0.36;67.45
62436;BME280;48480;50.252;18.848;2023-03-16T03:15:25;99036.49;;;-0.36;67.72
62436;BME280;48480;50.252;18.848;2023-03-16T03:17:50;99037.15;;;-0.38;67.72
62436;BME280;48480;50.252;18.848;2023-03-16T03:20:16;99040.95;;;-0.37;67.87
62436;BME280;48480;50.252;18.848;2023-03-16T03:22:47;99041.45;;;-0.37;68.02
62436;BME280;48480;50.252;18.848;2023-03-16T03:25:41;99046.67;;;-0.39;67.86
62436;BME280;48480;50.252;18.848;2023-03-16T03:28:36;99048.88;;;-0.43;67.77
62436;BME280;48480;50.252;18.848;2023-03-16T03:31:30;99054.95;;;-0.46;68.04
62436;BME280;48480;50.252;18.848;2023-03-16T03:34:24;99054.95;;;-0.50;68.16
62436;BME280;48480;50.252;18.848;2023-03-16T03:37:19;99060.91;;;-0.52;68.28
62436;BME280;48480;50.252;18.848;2023-03-16T03:40:15;99066.38;;;-0.52;68.35
62436;BME280;48480;50.252;18.848;2023-03-16T03:43:08;99072.02;;;-0.52;68.37
62436;BME280;48480;50.252;18.848;2023-03-16T03:46:03;99073.27;;;-0.51;68.57
62436;BME280;48480;50.252;18.848;2023-03-16T03:48:57;99075.97;;;-0.50;68.88
62436;BME280;48480;50.252;18.848;2023-03-16T03:51:56;99077.45;;;-0.52;68.91
62436;BME280;48480;50.252;18.848;2023-03-16T03:54:52;99077.36;;;-0.54;69.02
62436;BME280;48480;50.252;18.848;2023-03-16T03:57:46;99074.02;;;-0.55;69.08
62436;BME280;48480;50.252;18.848;2023-03-16T04:00:40;99077.80;;;-0.56;69.22
62436;BME280;48480;50.252;18.848;2023-03-16T04:03:34;99083.85;;;-0.56;69.41
62436;BME280;48480;50.252;18.848;2023-03-16T04:06:28;99086.45;;;-0.57;69.34
62436;BME280;48480;50.252;18.848;2023-03-16T04:09:22;99086.55;;;-0.58;69.29
62436;BME280;48480;50.252;18.848;2023-03-16T04:12:16;99086.13;;;-0.62;69.30
62436;BME280;48480;50.252;18.848;2023-03-16T04:15:10;99085.80;;;-0.63;69.45
62436;BME280;48480;50.252;18.848;2023-03-16T04:18:05;99084.39;;;-0.65;69.29
62436;BME280;48480;50.252;18.848;2023-03-16T04:20:59;99083.49;;;-0.68;69.10
62436;BME280;48480;50.252;18.848;2023-03-16T04:23:53;99086.83;;;-0.68;69.03
62436;BME280;48480;50.252;18.848;2023-03-16T04:26:47;99087.23;;;-0.66;69.26
62436;BME280;48480;50.252;18.848;2023-03-16T04:29:41;99086.81;;;-0.67;69.00
62436;BME280;48480;50.252;18.848;2023-03-16T04:32:37;99092.73;;;-0.66;69.25
62436;BME280;48480;50.252;18.848;2023-03-16T04:35:31;99089.53;;;-0.67;69.32
62436;BME280;48480;50.252;18.848;2023-03-16T04:38:25;99094.63;;;-0.66;69.65
62436;BME280;48480;50.252;18.848;2023-03-16T04:41:19;99092.75;;;-0.65;69.87
62436;BME280;48480;50.252;18.848;2023-03-16T04:44:13;99093.25;;;-0.64;69.81
62436;BME280;48480;50.252;18.848;2023-03-16T04:47:08;99094.97;;;-0.65;69.86
62436;BME280;48480;50.252;18.848;2023-03-16T05:21:49;99137.17;;;-0.86;69.67
62436;BME280;48480;50.252;18.848;2023-03-16T05:24:14;99143.98;;;-0.86;69.96
62436;BME280;48480;50.252;18.848;2023-03-16T05:26:40;99144.23;;;-0.86;69.45
62436;BME280;48480;50.252;18.848;2023-03-16T05:29:05;99143.52;;;-0.87;69.54
62436;BME280;48480;50.252;18.848;2023-03-16T05:31:31;99144.72;;;-0.86;69.76
62436;BME280;48480;50.252;18.848;2023-03-16T05:33:58;99137.21;;;-0.89;69.88
62436;BME280;48480;50.252;18.848;2023-03-16T05:36:24;99148.02;;;-0.78;69.81
62436;BME280;48480;50.252;18.848;2023-03-16T05:38:50;99141.80;;;-0.74;69.94
62436;BME280;48480;50.252;18.848;2023-03-16T05:41:15;99142.66;;;-0.69;70.18
62436;BME280;48480;50.252;18.848;2023-03-16T05:43:43;99141.73;;;-0.64;70.12
62436;BME280;48480;50.252;18.848;2023-03-16T05:46:09;99147.14;;;-0.59;70.35
62436;BME280;48480;50.252;18.848;2023-03-16T05:48:35;99147.30;;;-0.54;70.34
62436;BME280;48480;50.252;18.848;2023-03-16T05:51:01;99155.59;;;-0.50;70.30
62436;BME280;48480;50.252;18.848;2023-03-16T05:53:33;99161.23;;;-0.45;70.48
62436;BME280;48480;50.252;18.848;2023-03-16T05:56:00;99166.69;;;-0.40;70.51
62436;BME280;48480;50.252;18.848;2023-03-16T05:58:26;99169.33;;;-0.35;70.55
62436;BME280;48480;50.252;18.848;2023-03-16T06:00:52;99169.00;;;-0.29;70.46
62436;BME280;48480;50.252;18.848;2023-03-16T06:03:20;99166.77;;;-0.24;70.42
62436;BME280;48480;50.252;18.848;2023-03-16T06:05:47;99170.60;;;-0.18;70.57
62436;BME280;48480;50.252;18.848;2023-03-16T06:08:12;99173.88;;;-0.10;70.58
62436;BME280;48480;50.252;18.848;2023-03-16T06:10:40;99176.90;;;-0.04;70.70
62436;BME280;48480;50.252;18.848;2023-03-16T06:13:05;99178.72;;;0.05;70.60
62436;BME280;48480;50.252;18.848;2023-03-16T06:15:31;99186.54;;;0.12;70.58
62436;BME280;48480;50.252;18.848;2023-03-16T06:17:56;99193.31;;;0.20;70.57
62436;BME280;48480;50.252;18.848;2023-03-16T06:20:22;99198.19;;;0.30;70.64
62436;BME280;48480;50.252;18.848;2023-03-16T06:22:47;99203.89;;;0.37;70.70
62436;BME280;48480;50.252;18.848;2023-03-16T06:25:14;99203.50;;;0.46;70.78
62436;BME280;48480;50.252;18.848;2023-03-16T06:27:40;99205.63;;;0.59;70.99
62436;BME280;48480;50.252;18.848;2023-03-16T06:30:08;99201.89;;;0.77;71.27
62436;BME280;48480;50.252;18.848;2023-03-16T06:32:35;99201.34;;;0.97;71.26
62436;BME280;48480;50.252;18.848;2023-03-16T06:35:01;99201.55;;;1.13;71.26
62436;BME280;48480;50.252;18.848;2023-03-16T06:37:28;99206.33;;;1.25;71.03
62436;BME280;48480;50.252;18.848;2023-03-16T06:39:54;99208.23;;;1.35;70.93
62436;BME280;48480;50.252;18.848;2023-03-16T06:42:19;99202.97;;;1.47;71.06
62436;BME280;48480;50.252;18.848;2023-03-16T06:44:45;99209.50;;;1.63;70.72
62436;BME280;48480;50.252;18.848;2023-03-16T06:47:11;99211.52;;;1.71;70.33
62436;BME280;48480;50.252;18.848;2023-03-16T06:49:36;99215.77;;;1.81;70.32
62436;BME280;48480;50.252;18.848;2023-03-16T06:52:02;99216.88;;;1.94;70.02
62436;BME280;48480;50.252;18.848;2023-03-16T06:54:28;99220.13;;;2.05;69.89
62436;BME280;48480;50.252;18.848;2023-03-16T06:56:56;99222.15;;;2.16;69.73
62436;BME280;48480;50.252;18.848;2023-03-16T06:59:21;99225.91;;;2.27;69.49
62436;BME280;48480;50.252;18.848;2023-03-16T07:01:47;99223.89;;;2.33;69.05
62436;BME280;48480;50.252;18.848;2023-03-16T07:04:14;99226.23;;;2.29;69.05
62436;BME280;48480;50.252;18.848;2023-03-16T07:06:40;99227.35;;;2.30;69.11
62436;BME280;48480;50.252;18.848;2023-03-16T07:09:06;99230.43;;;2.38;68.90
62436;BME280;48480;50.252;18.848;2023-03-16T07:11:31;99235.85;;;2.46;68.68
62436;BME280;48480;50.252;18.848;2023-03-16T07:13:58;99237.09;;;2.44;68.63
62436;BME280;48480;50.252;18.848;2023-03-16T07:16:24;99237.63;;;2.38;68.72
62436;BME280;48480;50.252;18.848;2023-03-16T07:18:50;99241.89;;;2.40;68.91
62436;BME280;48480;50.252;18.848;2023-03-16T07:21:17;99245.67;;;2.52;68.97
62436;BME280;48480;50.252;18.848;2023-03-16T07:23:42;99246.23;;;2.72;68.79
62436;BME280;48480;50.252;18.848;2023-03-16T07:26:09;99249.70;;;2.98;68.18
62436;BME280;48480;50.252;18.848;2023-03-16T07:28:37;99250.78;;;3.09;67.52
62436;BME280;48480;50.252;18.848;2023-03-16T07:31:03;99251.02;;;3.20;67.17
62436;BME280;48480;50.252;18.848;2023-03-16T07:33:32;99247.17;;;3.18;66.93
62436;BME280;48480;50.252;18.848;2023-03-16T07:35:59;99249.71;;;3.17;66.81
62436;BME280;48480;50.252;18.848;2023-03-16T07:38:28;99248.36;;;3.19;66.67
62436;BME280;48480;50.252;18.848;2023-03-16T07:40:54;99251.02;;;3.23;66.64
62436;BME280;48480;50.252;18.848;2023-03-16T07:43:19;99251.59;;;3.32;66.44
62436;BME280;48480;50.252;18.848;2023-03-16T07:45:48;99250.67;;;3.45;66.08
62436;BME280;48480;50.252;18.848;2023-03-16T07:48:14;99258.15;;;3.56;65.93
62436;BME280;48480;50.252;18.848;2023-03-16T07:50:40;99258.67;;;3.70;65.73
62436;BME280;48480;50.252;18.848;2023-03-16T07:53:05;99261.92;;;3.88;65.21
62436;BME280;48480;50.252;18.848;2023-03-16T07:55:31;99261.27;;;3.97;64.81
62436;BME280;48480;50.252;18.848;2023-03-16T07:57:57;99257.42;;;4.01;64.69
62436;BME280;48480;50.252;18.848;2023-03-16T08:00:22;99253.69;;;4.32;64.53
62436;BME280;48480;50.252;18.848;2023-03-16T08:02:49;99249.89;;;4.66;63.78
62436;BME280;48480;50.252;18.848;2023-03-16T08:05:16;99252.87;;;4.97;63.07
62436;BME280;48480;50.252;18.848;2023-03-16T08:07:41;99259.48;;;5.16;62.11
62436;BME280;48480;50.252;18.848;2023-03-16T08:10:07;99269.17;;;5.44;61.60
62436;BME280;48480;50.252;18.848;2023-03-16T08:12:33;99267.16;;;5.92;61.15
62436;BME280;48480;50.252;18.848;2023-03-16T08:14:58;99264.98;;;6.59;59.70
62436;BME280;48480;50.252;18.848;2023-03-16T08:17:24;99268.36;;;7.21;58.42
62436;BME280;48480;50.252;18.848;2023-03-16T08:19:49;99268.76;;;7.80;57.02
62436;BME280;48480;50.252;18.848;2023-03-16T08:22:14;99272.13;;;8.33;55.34
62436;BME280;48480;50.252;18.848;2023-03-16T08:24:40;99275.35;;;8.63;53.89
62436;BME280;48480;50.252;18.848;2023-03-16T08:27:07;99276.98;;;8.82;52.93
62436;BME280;48480;50.252;18.848;2023-03-16T08:29:32;99275.26;;;9.04;52.93
62436;BME280;48480;50.252;18.848;2023-03-16T08:32:02;99276.64;;;9.37;52.10
62436;BME280;48480;50.252;18.848;2023-03-16T08:34:27;99273.30;;;9.66;51.13
62436;BME280;48480;50.252;18.848;2023-03-16T08:36:53;99271.39;;;9.99;50.35
62436;BME280;48480;50.252;18.848;2023-03-16T08:39:19;99269.65;;;10.29;49.77
62436;BME280;48480;50.252;18.848;2023-03-16T08:41:45;99268.48;;;10.48;48.87
62436;BME280;48480;50.252;18.848;2023-03-16T08:44:12;99261.23;;;10.36;47.94
62436;BME280;48480;50.252;18.848;2023-03-16T08:46:38;99267.19;;;10.29;47.62
62436;BME280;48480;50.252;18.848;2023-03-16T08:49:04;99268.55;;;10.35;46.93
62436;BME280;48480;50.252;18.848;2023-03-16T08:51:31;99273.52;;;10.50;46.66
62436;BME280;48480;50.252;18.848;2023-03-16T08:53:56;99275.96;;;10.69;46.73
62436;BME280;48480;50.252;18.848;2023-03-16T08:56:23;99275.19;;;10.83;46.44
62436;BME280;48480;50.252;18.848;2023-03-16T08:58:48;99280.20;;;10.79;46.33
62436;BME280;48480;50.252;18.848;2023-03-16T09:01:16;99285.04;;;10.46;46.55
62436;BME280;48480;50.252;18.848;2023-03-16T09:03:44;99285.89;;;10.08;46.90
62436;BME280;48480;50.252;18.848;2023-03-16T09:06:13;99282.91;;;10.03;46.86
62436;BME280;48480;50.252;18.848;2023-03-16T09:08:39;99285.52;;;10.15;46.39
62436;BME280;48480;50.252;18.848;2023-03-16T09:11:08;99286.96;;;10.01;46.10
62436;BME280;48480;50.252;18.848;2023-03-16T09:13:36;99287.77;;;10.15;45.97
62436;BME280;48480;50.252;18.848;2023-03-16T09:16:03;99285.42;;;10.43;45.44
62436;BME280;48480;50.252;18.848;2023-03-16T09:18:31;99287.55;;;10.79;45.18
62436;BME280;48480;50.252;18.848;2023-03-16T09:21:01;99287.00;;;11.06;44.85
62436;BME280;48480;50.252;18.848;2023-03-16T09:23:28;99287.04;;;11.20;44.09
62436;BME280;48480;50.252;18.848;2023-03-16T09:25:59;99286.66;;;11.23;42.82
62436;BME280;48480;50.252;18.848;2023-03-16T09:28:26;99287.05;;;10.95;42.75
62436;BME280;48480;50.252;18.848;2023-03-16T09:30:54;99289.74;;;10.41;43.44
62436;BME280;48480;50.252;18.848;2023-03-16T09:33:21;99293.05;;;9.76;43.53
62436;BME280;48480;50.252;18.848;2023-03-16T09:35:47;99291.34;;;9.21;44.67
62436;BME280;48480;50.252;18.848;2023-03-16T09:38:13;99290.40;;;9.20;44.83
62436;BME280;48480;50.252;18.848;2023-03-16T09:40:39;99287.32;;;9.31;44.87
62436;BME280;48480;50.252;18.848;2023-03-16T09:43:46;99278.77;;;9.51;44.86
62436;BME280;48480;50.252;18.848;2023-03-16T09:46:29;99292.71;;;9.82;44.59
62436;BME280;48480;50.252;18.848;2023-03-16T09:48:57;99288.98;;;9.99;43.76
62436;BME280;48480;50.252;18.848;2023-03-16T09:54:27;99292.17;;;9.78;43.50
62436;BME280;48480;50.252;18.848;2023-03-16T09:56:57;99291.73;;;9.59;43.90
62436;BME280;48480;50.252;18.848;2023-03-16T09:59:24;99295.48;;;9.37;43.68
62436;BME280;48480;50.252;18.848;2023-03-16T10:01:54;99302.56;;;9.13;44.00
62436;BME280;48480;50.252;18.848;2023-03-16T10:04:39;99302.61;;;9.37;44.02
62436;BME280;48480;50.252;18.848;2023-03-16T10:09:49;99301.53;;;9.84;43.41
62436;BME280;48480;50.252;18.848;2023-03-16T10:12:20;99300.77;;;9.72;42.98
62436;BME280;48480;50.252;18.848;2023-03-16T10:15:14;99301.80;;;9.42;42.83
62436;BME280;48480;50.252;18.848;2023-03-16T10:17:45;99302.11;;;9.38;43.44
62436;BME280;48480;50.252;18.848;2023-03-16T10:20:20;99303.77;;;9.68;43.40
62436;BME280;48480;50.252;18.848;2023-03-16T10:22:48;99304.91;;;10.09;43.01
62436;BME280;48480;50.252;18.848;2023-03-16T10:25:24;99303.89;;;10.42;42.48
62436;BME280;48480;50.252;18.848;2023-03-16T10:27:52;99313.23;;;10.34;41.55
62436;BME280;48480;50.252;18.848;2023-03-16T10:30:26;99316.52;;;10.11;41.42
62436;BME280;48480;50.252;18.848;2023-03-16T10:32:54;99312.33;;;9.94;41.96
62436;BME280;48480;50.252;18.848;2023-03-16T10:41:23;99313.98;;;9.89;41.89
62436;BME280;48480;50.252;18.848;2023-03-16T10:43:55;99314.41;;;10.16;41.40
62436;BME280;48480;50.252;18.848;2023-03-16T10:46:24;99307.88;;;10.30;41.50
62436;BME280;48480;50.252;18.848;2023-03-16T10:48:56;99310.52;;;10.51;40.77
62436;BME280;48480;50.252;18.848;2023-03-16T10:51:35;99307.90;;;10.37;40.26
62436;BME280;48480;50.252;18.848;2023-03-16T10:54:14;99311.88;;;10.53;40.27
62436;BME280;48480;50.252;18.848;2023-03-16T10:56:40;99310.56;;;10.79;39.00
62436;BME280;48480;50.252;18.848;2023-03-16T10:59:26;99299.02;;;10.97;37.93
62436;BME280;48480;50.252;18.848;2023-03-16T11:01:52;99297.94;;;11.18;38.02
62436;BME280;48480;50.252;18.848;2023-03-16T11:04:18;99299.16;;;11.27;38.62
62436;BME280;48480;50.252;18.848;2023-03-16T11:06:52;99298.10;;;11.21;38.54
62436;BME280;48480;50.252;18.848;2023-03-16T11:09:36;99299.92;;;11.01;38.60
62436;BME280;48480;50.252;18.848;2023-03-16T11:14:46;99308.58;;;10.76;37.30
62436;BME280;48480;50.252;18.848;2023-03-16T11:17:39;99304.80;;;10.62;37.37
62436;BME280;48480;50.252;18.848;2023-03-16T11:20:35;99303.85;;;10.80;37.59
62436;BME280;48480;50.252;18.848;2023-03-16T11:23:01;99296.17;;;10.86;37.68
62436;BME280;48480;50.252;18.848;2023-03-16T11:25:38;99297.39;;;10.90;38.06
62436;BME280;48480;50.252;18.848;2023-03-16T11:28:18;99296.06;;;11.12;37.77
62436;BME280;48480;50.252;18.848;2023-03-16T11:31:02;99296.95;;;11.22;37.56
62436;BME280;48480;50.252;18.848;2023-03-16T11:33:33;99294.63;;;11.19;37.49
62436;BME280;48480;50.252;18.848;2023-03-16T11:39:10;99296.46;;;10.82;37.64
62436;BME280;48480;50.252;18.848;2023-03-16T11:44:35;99291.32;;;10.22;38.48
62436;BME280;48480;50.252;18.848;2023-03-16T11:47:20;99275.49;;;10.23;38.88
62436;BME280;48480;50.252;18.848;2023-03-16T12:03:38;99294.54;;;9.17;38.76
62436;BME280;48480;50.252;18.848;2023-03-16T12:06:26;99294.45;;;9.07;38.99
62436;BME280;48480;50.252;18.848;2023-03-16T12:11:45;99294.17;;;8.98;39.72
62436;BME280;48480;50.252;18.848;2023-03-16T12:14:22;99292.50;;;8.98;40.01
62436;BME280;48480;50.252;18.848;2023-03-16T12:17:02;99286.11;;;9.09;40.13
62436;BME280;48480;50.252;18.848;2023-03-16T12:19:55;99285.66;;;9.08;39.86
62436;BME280;48480;50.252;18.848;2023-03-16T12:22:36;99279.18;;;9.02;39.90
62436;BME280;48480;50.252;18.848;2023-03-16T12:25:13;99283.27;;;8.91;40.29
62436;BME280;48480;50.252;18.848;2023-03-16T12:27:42;99282.84;;;8.91;40.06
62436;BME280;48480;50.252;18.848;2023-03-16T12:30:26;99279.97;;;8.94;39.70
62436;BME280;48480;50.252;18.848;2023-03-16T12:44:16;99274.51;;;8.58;40.17
62436;BME280;48480;50.252;18.848;2023-03-16T12:46:51;99275.70;;;8.61;39.82
62436;BME280;48480;50.252;18.848;2023-03-16T12:49:22;99273.19;;;8.72;39.49
62436;BME280;48480;50.252;18.848;2023-03-16T12:52:01;99272.55;;;8.81;39.26
62436;BME280;48480;50.252;18.848;2023-03-16T12:54:28;99274.95;;;8.92;39.06
62436;BME280;48480;50.252;18.848;2023-03-16T12:57:03;99276.71;;;8.88;39.02
62436;BME280;48480;50.252;18.848;2023-03-16T12:59:39;99278.27;;;8.83;39.24
62436;BME280;48480;50.252;18.848;2023-03-16T13:04:43;99275.15;;;8.85;39.67
62436;BME280;48480;50.252;18.848;2023-03-16T13:07:23;99275.13;;;8.91;39.74
62436;BME280;48480;50.252;18.848;2023-03-16T13:14:42;99280.76;;;8.79;37.94
62436;BME280;48480;50.252;18.848;2023-03-16T13:19:41;99286.00;;;8.64;38.07
62436;BME280;48480;50.252;18.848;2023-03-16T13:27:32;99288.73;;;8.51;37.88
62436;BME280;48480;50.252;18.848;2023-03-16T13:30:11;99284.05;;;8.59;37.71
62436;BME280;48480;50.252;18.848;2023-03-16T13:32:39;99286.29;;;8.68;37.42
62436;BME280;48480;50.252;18.848;2023-03-16T13:35:16;99280.52;;;8.71;37.28
62436;BME280;48480;50.252;18.848;2023-03-16T13:37:43;99276.89;;;8.77;37.32
62436;BME280;48480;50.252;18.848;2023-03-16T13:40:22;99273.28;;;8.78;37.28
62436;BME280;48480;50.252;18.848;2023-03-16T13:42:48;99274.73;;;8.77;36.99
62436;BME280;48480;50.252;18.848;2023-03-16T13:45:20;99269.39;;;8.82;36.78
62436;BME280;48480;50.252;18.848;2023-03-16T13:47:47;99269.75;;;8.93;36.69
62436;BME280;48480;50.252;18.848;2023-03-16T13:50:15;99265.91;;;9.06;36.51
62436;BME280;48480;50.252;18.848;2023-03-16T13:52:42;99264.11;;;9.11;35.92
62436;BME280;48480;50.252;18.848;2023-03-16T13:55:20;99263.91;;;9.13;35.61
62436;BME280;48480;50.252;18.848;2023-03-16T13:57:48;99266.02;;;9.20;35.89
62436;BME280;48480;50.252;18.848;2023-03-16T14:00:16;99263.16;;;9.31;35.86
62436;BME280;48480;50.252;18.848;2023-03-16T14:02:45;99264.20;;;9.39;35.87
62436;BME280;48480;50.252;18.848;2023-03-16T14:05:17;99265.38;;;9.43;35.65
62436;BME280;48480;50.252;18.848;2023-03-16T14:07:48;99265.71;;;9.45;35.22
62436;BME280;48480;50.252;18.848;2023-03-16T14:10:16;99260.47;;;9.36;34.64
62436;BME280;48480;50.252;18.848;2023-03-16T14:12:54;99265.02;;;9.27;34.62
62436;BME280;48480;50.252;18.848;2023-03-16T14:15:24;99264.48;;;9.19;34.90
62436;BME280;48480;50.252;18.848;2023-03-16T14:17:50;99266.80;;;9.13;35.38
62436;BME280;48480;50.252;18.848;2023-03-16T14:20:22;99269.40;;;9.19;35.64
62436;BME280;48480;50.252;18.848;2023-03-16T14:22:52;99266.98;;;9.17;35.38
62436;BME280;48480;50.252;18.848;2023-03-16T14:25:21;99263.54;;;9.09;35.72
62436;BME280;48480;50.252;18.848;2023-03-16T14:27:56;99263.93;;;9.07;35.85
62436;BME280;48480;50.252;18.848;2023-03-16T14:30:25;99266.80;;;9.04;36.04
62436;BME280;48480;50.252;18.848;2023-03-16T14:33:05;99261.80;;;9.06;35.96
62436;BME280;48480;50.252;18.848;2023-03-16T14:35:53;99261.96;;;9.06;36.04
62436;BME280;48480;50.252;18.848;2023-03-16T14:38:34;99263.95;;;9.00;36.18
62436;BME280;48480;50.252;18.848;2023-03-16T14:41:11;99266.71;;;8.92;36.31
62436;BME280;48480;50.252;18.848;2023-03-16T14:43:47;99265.54;;;8.87;36.79
62436;BME280;48480;50.252;18.848;2023-03-16T14:46:32;99263.63;;;8.76;36.99
62436;BME280;48480;50.252;18.848;2023-03-16T14:49:06;99267.40;;;8.73;37.20
62436;BME280;48480;50.252;18.848;2023-03-16T14:51:37;99269.73;;;8.75;37.29
62436;BME280;48480;50.252;18.848;2023-03-16T14:54:11;99267.57;;;8.82;37.42
62436;BME280;48480;50.252;18.848;2023-03-16T14:56:36;99268.95;;;8.83;36.90